Time;durP1;ratioP1;P1;durP2;ratioP2;P2;SDS_P1;SDS_P2;PMS_P1;PMS_P2;Temp;Humidity;BMP_temperature;BMP_pressure;BME280_temperature;BME280_humidity;BME280_pressure;Samples;Min_cycle;Max_cycle;Signal;HPM_P1;HPM_P2
2022/11/19 00:01:15;;;;;;;4.75;4.10;;;;;;;;;;5036530;28;20072;-67
2022/11/19 00:03:42;;;;;;;4.47;3.50;;;;;;;;;;5061214;28;20053;-68
2022/11/19 00:06:09;;;;;;;5.20;3.97;;;;;;;;;;5052280;28;20055;-68
2022/11/19 00:08:36;;;;;;;7.32;4.13;;;;;;;;;;5053181;28;20044;-68
2022/11/19 00:11:06;;;;;;;5.97;4.22;;;;;;;;;;5054885;28;20561;-69
2022/11/19 00:13:33;;;;;;;7.20;4.55;;;;;;;;;;5050478;28;20112;-68
2022/11/19 00:16:03;;;;;;;6.00;4.47;;;;;;;;;;5050919;28;20711;-68
2022/11/19 00:18:29;;;;;;;5.53;4.25;;;;;;;;;;5041147;28;20044;-68
2022/11/19 00:20:55;;;;;;;6.50;4.65;;;;;;;;;;5054931;28;20091;-68
2022/11/19 00:23:22;;;;;;;4.53;3.55;;;;;;;;;;5025282;28;20044;-68
2022/11/19 00:25:48;;;;;;;5.45;4.32;;;;;;;;;;5051252;28;20044;-69
2022/11/19 00:28:14;;;;;;;6.85;5.10;;;;;;;;;;5055344;28;20051;-68
2022/11/19 00:30:40;;;;;;;6.55;5.00;;;;;;;;;;5050365;28;20129;-68
2022/11/19 00:33:06;;;;;;;8.65;4.80;;;;;;;;;;5056014;28;20048;-68
2022/11/19 00:35:32;;;;;;;6.32;4.50;;;;;;;;;;5048109;28;20071;-67
2022/11/19 00:37:58;;;;;;;6.32;4.93;;;;;;;;;;5036382;28;20047;-68
2022/11/19 00:40:24;;;;;;;9.55;5.78;;;;;;;;;;5051329;28;20047;-68
2022/11/19 00:45:35;;;;;;;5.35;4.28;;;;;;;;;;5052167;28;20060;-68
2022/11/19 00:48:01;;;;;;;8.57;5.28;;;;;;;;;;5054174;28;20048;-67
2022/11/19 00:50:27;;;;;;;6.43;5.00;;;;;;;;;;5053954;28;20033;-67
2022/11/19 00:52:53;;;;;;;6.65;5.20;;;;;;;;;;5052988;28;20170;-67
2022/11/19 00:55:19;;;;;;;6.47;4.80;;;;;;;;;;5051804;28;20036;-67
2022/11/19 00:57:46;;;;;;;8.45;5.28;;;;;;;;;;5050567;28;20052;-67
2022/11/19 01:00:12;;;;;;;6.78;5.50;;;;;;;;;;5046191;28;20686;-67
2022/11/19 01:02:38;;;;;;;7.10;5.20;;;;;;;;;;5051662;28;20528;-67
2022/11/19 01:05:04;;;;;;;6.18;4.15;;;;;;;;;;5052532;28;20049;-67
2022/11/19 01:07:30;;;;;;;6.47;4.25;;;;;;;;;;5053612;28;20048;-67
2022/11/19 01:09:56;;;;;;;8.30;5.63;;;;;;;;;;5037591;28;20706;-67
2022/11/19 01:12:22;;;;;;;6.20;5.18;;;;;;;;;;5054318;28;20045;-67
2022/11/19 01:14:48;;;;;;;6.88;5.05;;;;;;;;;;5065247;28;20075;-67
2022/11/19 01:17:15;;;;;;;5.93;4.75;;;;;;;;;;5054794;28;20040;-67
2022/11/19 01:19:41;;;;;;;6.90;5.43;;;;;;;;;;5056458;28;20113;-68
2022/11/19 01:22:07;;;;;;;6.32;5.35;;;;;;;;;;5056896;28;20048;-68
2022/11/19 01:24:33;;;;;;;8.02;4.63;;;;;;;;;;5065501;28;20044;-68
2022/11/19 01:26:59;;;;;;;6.93;5.35;;;;;;;;;;5057616;28;23566;-68
2022/11/19 01:29:25;;;;;;;6.57;4.97;;;;;;;;;;5052764;28;20052;-67
2022/11/19 01:31:51;;;;;;;6.68;5.20;;;;;;;;;;5050130;28;20055;-68
2022/11/19 01:34:17;;;;;;;6.82;5.07;;;;;;;;;;5052387;28;20041;-68
2022/11/19 01:36:43;;;;;;;8.82;5.43;;;;;;;;;;5056945;28;20037;-68
2022/11/19 01:39:09;;;;;;;6.28;4.90;;;;;;;;;;5050264;28;20060;-67
2022/11/19 01:41:35;;;;;;;6.18;5.32;;;;;;;;;;5046906;28;20075;-67
2022/11/19 01:44:03;;;;;;;7.22;5.20;;;;;;;;;;5048373;28;21187;-67
2022/11/19 01:46:31;;;;;;;6.75;4.95;;;;;;;;;;5052218;28;20091;-67
2022/11/19 01:49:02;;;;;;;8.55;5.90;;;;;;;;;;5066443;28;20051;-67
2022/11/19 01:51:31;;;;;;;7.10;5.50;;;;;;;;;;5053940;28;20052;-67
2022/11/19 01:53:59;;;;;;;10.18;6.80;;;;;;;;;;5054751;28;20071;-68
2022/11/19 01:56:26;;;;;;;6.32;5.15;;;;;;;;;;5048367;28;20522;-68
2022/11/19 01:58:55;;;;;;;7.28;5.82;;;;;;;;;;5058159;28;20116;-68
2022/11/19 02:01:21;;;;;;;7.07;5.65;;;;;;;;;;5056851;28;20638;-68
2022/11/19 02:03:48;;;;;;;7.95;5.75;;;;;;;;;;5053558;28;20419;-68
2022/11/19 02:06:14;;;;;;;6.93;5.40;;;;;;;;;;5054535;28;20132;-67
2022/11/19 02:08:42;;;;;;;7.18;5.25;;;;;;;;;;5059081;28;20068;-67
2022/11/19 02:11:26;;;;;;;7.03;5.65;;;;;;;;;;5050051;28;20052;-67
2022/11/19 02:14:05;;;;;;;7.22;5.47;;;;;;;;;;5033057;28;20074;-67
2022/11/19 02:16:50;;;;;;;7.43;5.47;;;;;;;;;;5072553;28;20126;-67
2022/11/19 02:19:16;;;;;;;9.02;5.80;;;;;;;;;;5057211;28;20212;-67
2022/11/19 02:21:53;;;;;;;6.60;5.00;;;;;;;;;;5055269;28;20048;-66
2022/11/19 02:24:22;;;;;;;6.50;5.10;;;;;;;;;;5061066;28;20041;-66
2022/11/19 02:26:57;;;;;;;6.72;4.65;;;;;;;;;;5056024;28;20090;-66
2022/11/19 02:29:29;;;;;;;7.65;5.18;;;;;;;;;;5053252;28;20048;-66
2022/11/19 02:31:58;;;;;;;7.32;5.72;;;;;;;;;;5055933;28;20044;-67
2022/11/19 02:34:35;;;;;;;6.50;5.47;;;;;;;;;;5061125;28;20052;-66
2022/11/19 02:37:04;;;;;;;7.07;5.47;;;;;;;;;;5060691;28;20067;-66
2022/11/19 02:39:36;;;;;;;8.65;5.25;;;;;;;;;;5053799;28;20044;-66
2022/11/19 02:42:08;;;;;;;6.68;5.60;;;;;;;;;;5052350;28;22597;-66
2022/11/19 02:47:24;;;;;;;6.45;5.07;;;;;;;;;;5053072;28;20844;-66
2022/11/19 02:49:53;;;;;;;6.82;4.70;;;;;;;;;;5054694;28;22330;-66
2022/11/19 02:52:19;;;;;;;7.47;5.18;;;;;;;;;;5055194;28;20045;-66
2022/11/19 02:54:45;;;;;;;5.70;4.60;;;;;;;;;;5049368;28;20049;-66
2022/11/19 02:57:12;;;;;;;7.15;5.32;;;;;;;;;;5056581;28;20039;-66
2022/11/19 03:05:30;;;;;;;6.85;4.75;;;;;;;;;;5066586;28;20052;-67
2022/11/19 03:07:56;;;;;;;6.70;5.03;;;;;;;;;;5047424;28;20117;-67
2022/11/19 03:10:26;;;;;;;6.50;5.03;;;;;;;;;;5053703;28;20048;-65
2022/11/19 03:12:55;;;;;;;8.50;5.40;;;;;;;;;;5054934;28;20049;-66
2022/11/19 03:18:32;;;;;;;6.43;5.10;;;;;;;;;;5052122;28;20048;-66
2022/11/19 03:21:05;;;;;;;6.47;5.32;;;;;;;;;;5051340;28;20144;-66
2022/11/19 03:23:34;;;;;;;8.32;5.32;;;;;;;;;;5047248;28;20059;-66
2022/11/19 03:26:03;;;;;;;7.50;5.97;;;;;;;;;;5047011;28;20104;-67
2022/11/19 03:28:33;;;;;;;7.93;5.22;;;;;;;;;;5049709;28;20048;-67
2022/11/19 03:31:00;;;;;;;6.13;4.90;;;;;;;;;;5028430;28;20177;-67
2022/11/19 03:33:30;;;;;;;6.70;5.28;;;;;;;;;;5066141;28;20162;-67
2022/11/19 03:35:59;;;;;;;7.32;5.88;;;;;;;;;;5052993;28;20066;-67
2022/11/19 03:38:30;;;;;;;8.48;6.57;;;;;;;;;;5032875;28;20037;-65
2022/11/19 03:40:56;;;;;;;9.02;5.40;;;;;;;;;;5052176;28;20063;-67
2022/11/19 03:43:25;;;;;;;6.28;5.50;;;;;;;;;;5053397;28;20037;-67
2022/11/19 03:45:52;;;;;;;8.50;5.97;;;;;;;;;;5052931;28;20121;-67
2022/11/19 03:48:20;;;;;;;6.82;5.30;;;;;;;;;;5051413;28;20064;-67
2022/11/19 03:51:15;;;;;;;9.02;5.65;;;;;;;;;;5046513;28;20167;-69
2022/11/19 03:53:41;;;;;;;10.93;5.72;;;;;;;;;;5034919;28;20080;-67
2022/11/19 03:56:09;;;;;;;8.98;6.45;;;;;;;;;;5047331;28;20491;-66
2022/11/19 03:58:38;;;;;;;8.30;6.03;;;;;;;;;;5049921;28;20062;-67
2022/11/19 04:01:04;;;;;;;8.20;6.28;;;;;;;;;;5049323;28;20040;-67
2022/11/19 04:03:33;;;;;;;9.32;5.88;;;;;;;;;;5047842;28;20112;-69
2022/11/19 04:05:59;;;;;;;10.27;6.10;;;;;;;;;;5049059;28;20057;-68
2022/11/19 04:08:25;;;;;;;8.93;6.57;;;;;;;;;;5042886;28;20052;-68
2022/11/19 04:10:51;;;;;;;11.13;6.57;;;;;;;;;;5032836;28;20076;-68
2022/11/19 04:13:17;;;;;;;9.13;6.10;;;;;;;;;;5046029;28;20056;-68
2022/11/19 04:15:43;;;;;;;8.48;6.20;;;;;;;;;;5053816;28;20040;-67
2022/11/19 04:18:09;;;;;;;8.80;6.90;;;;;;;;;;5031541;28;22305;-67
2022/11/19 04:20:35;;;;;;;9.27;7.00;;;;;;;;;;5053906;28;20074;-67
2022/11/19 04:23:01;;;;;;;8.95;6.63;;;;;;;;;;5051234;28;20055;-67
2022/11/19 04:25:28;;;;;;;8.23;6.53;;;;;;;;;;5069289;28;20071;-68
2022/11/19 04:27:54;;;;;;;10.77;7.15;;;;;;;;;;5054250;28;20075;-68
2022/11/19 04:30:20;;;;;;;8.35;6.53;;;;;;;;;;5046783;28;20049;-68
2022/11/19 04:32:46;;;;;;;8.70;6.75;;;;;;;;;;5049085;28;22259;-68
2022/11/19 04:35:13;;;;;;;9.95;6.65;;;;;;;;;;5047763;28;20051;-67
2022/11/19 04:37:39;;;;;;;8.68;6.88;;;;;;;;;;5050096;28;20048;-68
2022/11/19 04:40:05;;;;;;;9.18;6.72;;;;;;;;;;5027302;28;20079;-67
2022/11/19 04:42:31;;;;;;;13.73;6.90;;;;;;;;;;5032126;28;20040;-67
2022/11/19 04:44:57;;;;;;;9.63;6.90;;;;;;;;;;5049742;28;20047;-68
2022/11/19 04:47:23;;;;;;;9.43;6.95;;;;;;;;;;5042331;28;20059;-67
2022/11/19 04:49:49;;;;;;;10.80;6.97;;;;;;;;;;5032878;28;20036;-67
2022/11/19 04:52:15;;;;;;;10.65;7.00;;;;;;;;;;5052042;28;20045;-67
2022/11/19 04:54:41;;;;;;;9.10;6.57;;;;;;;;;;5045966;28;20044;-68
2022/11/19 04:57:08;;;;;;;9.43;6.78;;;;;;;;;;5044107;28;20643;-68
2022/11/19 04:59:34;;;;;;;9.07;6.00;;;;;;;;;;5049385;28;20072;-66
2022/11/19 05:02:00;;;;;;;10.82;6.43;;;;;;;;;;5048652;28;20055;-66
2022/11/19 05:04:26;;;;;;;8.45;6.50;;;;;;;;;;5045843;28;20094;-66
2022/11/19 05:06:52;;;;;;;9.60;6.57;;;;;;;;;;5045559;28;20140;-67
2022/11/19 05:09:18;;;;;;;8.93;6.55;;;;;;;;;;5031814;28;20187;-68
2022/11/19 05:11:44;;;;;;;8.50;6.72;;;;;;;;;;5045411;28;20033;-66
2022/11/19 05:14:10;;;;;;;10.90;6.90;;;;;;;;;;5047587;28;20070;-67
2022/11/19 05:16:36;;;;;;;9.50;6.70;;;;;;;;;;5046357;28;20086;-67
2022/11/19 05:19:02;;;;;;;9.45;6.30;;;;;;;;;;5048853;28;20083;-66
2022/11/19 05:21:28;;;;;;;8.48;6.15;;;;;;;;;;5050412;28;20064;-67
2022/11/19 05:23:54;;;;;;;9.82;6.80;;;;;;;;;;5032321;28;24435;-67
2022/11/19 05:26:20;;;;;;;9.95;7.22;;;;;;;;;;5051611;28;20048;-66
2022/11/19 05:28:46;;;;;;;9.57;6.70;;;;;;;;;;5045355;28;20048;-67
2022/11/19 05:31:12;;;;;;;8.88;6.50;;;;;;;;;;5052870;28;20040;-67
2022/11/19 05:33:38;;;;;;;10.05;7.35;;;;;;;;;;5052054;28;20044;-66
2022/11/19 05:36:05;;;;;;;10.13;7.05;;;;;;;;;;5052288;28;20033;-67
2022/11/19 05:38:31;;;;;;;8.32;6.43;;;;;;;;;;5063970;28;20044;-67
2022/11/19 05:40:57;;;;;;;9.02;6.82;;;;;;;;;;5060183;28;20578;-66
2022/11/19 05:43:23;;;;;;;9.88;6.57;;;;;;;;;;5051704;28;22141;-67
2022/11/19 05:45:49;;;;;;;7.57;6.25;;;;;;;;;;5026499;28;20053;-67
2022/11/19 05:48:15;;;;;;;9.80;6.82;;;;;;;;;;5057042;28;20068;-67
2022/11/19 05:50:41;;;;;;;10.63;6.13;;;;;;;;;;5057640;28;20044;-68
2022/11/19 05:53:08;;;;;;;8.85;6.50;;;;;;;;;;5054141;28;20044;-67
2022/11/19 05:55:34;;;;;;;8.50;6.57;;;;;;;;;;5056290;28;20044;-67
2022/11/19 05:58:00;;;;;;;11.25;7.05;;;;;;;;;;5058735;28;20074;-67
2022/11/19 06:00:26;;;;;;;9.18;6.63;;;;;;;;;;5054684;28;20051;-67
2022/11/19 06:02:52;;;;;;;9.50;6.82;;;;;;;;;;5053374;28;20060;-66
2022/11/19 06:05:18;;;;;;;10.73;7.03;;;;;;;;;;5051764;28;20049;-66
2022/11/19 06:07:44;;;;;;;9.20;6.28;;;;;;;;;;5053591;28;20040;-66
2022/11/19 06:10:10;;;;;;;12.52;7.20;;;;;;;;;;5034236;28;20040;-67
2022/11/19 06:12:36;;;;;;;13.07;6.43;;;;;;;;;;5054187;28;20048;-66
2022/11/19 06:15:02;;;;;;;9.40;6.28;;;;;;;;;;5062093;28;20056;-67
2022/11/19 06:17:28;;;;;;;9.18;6.60;;;;;;;;;;5050092;28;20059;-68
2022/11/19 06:19:55;;;;;;;9.10;6.72;;;;;;;;;;5055950;28;20048;-67
2022/11/19 06:22:21;;;;;;;8.15;6.47;;;;;;;;;;5047026;28;20737;-69
2022/11/19 06:24:47;;;;;;;7.80;6.03;;;;;;;;;;5053172;28;20048;-67
2022/11/19 06:27:13;;;;;;;10.90;6.75;;;;;;;;;;5069719;28;20082;-67
2022/11/19 06:29:39;;;;;;;8.85;6.82;;;;;;;;;;5052453;28;20051;-67
2022/11/19 06:32:05;;;;;;;9.57;6.60;;;;;;;;;;5058576;28;20048;-67
2022/11/19 06:34:31;;;;;;;9.65;6.32;;;;;;;;;;5052612;28;20098;-67
2022/11/19 06:36:57;;;;;;;9.52;6.32;;;;;;;;;;5051339;28;20052;-66
2022/11/19 06:39:23;;;;;;;8.00;6.55;;;;;;;;;;5051722;28;20056;-67
2022/11/19 06:41:50;;;;;;;9.30;6.55;;;;;;;;;;5051587;28;20070;-67
2022/11/19 06:44:16;;;;;;;8.48;6.35;;;;;;;;;;5051652;28;20041;-68
2022/11/19 06:46:42;;;;;;;8.88;5.93;;;;;;;;;;5035204;28;20064;-67
2022/11/19 06:49:08;;;;;;;11.20;6.50;;;;;;;;;;5038967;28;20067;-67
2022/11/19 06:51:35;;;;;;;11.20;6.95;;;;;;;;;;5047893;28;20059;-68
2022/11/19 06:54:01;;;;;;;8.30;6.50;;;;;;;;;;5066318;28;20044;-68
2022/11/19 06:56:27;;;;;;;9.30;7.00;;;;;;;;;;5053507;28;20052;-67
2022/11/19 06:58:56;;;;;;;9.48;7.72;;;;;;;;;;5047998;28;20110;-68
2022/11/19 07:01:23;;;;;;;9.30;6.90;;;;;;;;;;5052690;28;20033;-68
2022/11/19 07:03:49;;;;;;;9.23;6.60;;;;;;;;;;5033848;28;20080;-68
2022/11/19 07:06:15;;;;;;;9.93;6.97;;;;;;;;;;5050554;28;20044;-67
2022/11/19 07:08:41;;;;;;;9.35;6.65;;;;;;;;;;5033824;28;20102;-67
2022/11/19 07:11:25;;;;;;;9.68;6.97;;;;;;;;;;5026966;28;20078;-67
2022/11/19 07:13:58;;;;;;;11.60;6.65;;;;;;;;;;5049818;28;20060;-68
2022/11/19 07:16:29;;;;;;;12.45;7.03;;;;;;;;;;5056540;28;20068;-68
2022/11/19 07:18:56;;;;;;;9.00;6.78;;;;;;;;;;5047205;28;20306;-68
2022/11/19 07:21:22;;;;;;;8.77;6.82;;;;;;;;;;5052342;28;20065;-68
2022/11/19 07:23:48;;;;;;;10.25;6.82;;;;;;;;;;5055555;28;20052;-68
2022/11/19 07:26:14;;;;;;;9.50;6.95;;;;;;;;;;5037223;28;20047;-68
2022/11/19 07:28:41;;;;;;;10.90;7.25;;;;;;;;;;5056683;28;20044;-68
2022/11/19 07:31:07;;;;;;;8.27;6.32;;;;;;;;;;5037413;28;20086;-68
2022/11/19 07:33:34;;;;;;;10.10;7.45;;;;;;;;;;5054085;28;20051;-68
2022/11/19 07:36:01;;;;;;;9.18;6.95;;;;;;;;;;5055744;28;20032;-68
2022/11/19 07:38:27;;;;;;;9.02;7.03;;;;;;;;;;5056400;28;20044;-67
2022/11/19 07:40:54;;;;;;;13.93;7.47;;;;;;;;;;5055064;28;20059;-68
2022/11/19 07:43:20;;;;;;;9.40;6.65;;;;;;;;;;5052887;28;20599;-67
2022/11/19 07:45:47;;;;;;;9.35;7.03;;;;;;;;;;5054608;28;20095;-67
2022/11/19 07:48:13;;;;;;;9.25;6.65;;;;;;;;;;5054590;28;20056;-68
2022/11/19 07:50:40;;;;;;;7.72;6.30;;;;;;;;;;5050027;28;20759;-68
2022/11/19 07:53:06;;;;;;;9.88;6.63;;;;;;;;;;5063542;28;20044;-68
2022/11/19 07:55:32;;;;;;;12.52;8.50;;;;;;;;;;5062453;28;20067;-68
2022/11/19 07:57:59;;;;;;;8.98;6.40;;;;;;;;;;5053466;28;20044;-68
2022/11/19 08:00:25;;;;;;;7.53;5.60;;;;;;;;;;5049806;28;20410;-68
2022/11/19 08:02:51;;;;;;;8.35;5.68;;;;;;;;;;5030419;28;20044;-68
2022/11/19 08:05:17;;;;;;;8.25;5.85;;;;;;;;;;5049271;28;20036;-67
2022/11/19 08:07:43;;;;;;;5.60;4.32;;;;;;;;;;5047624;28;20079;-68
2022/11/19 08:10:10;;;;;;;6.57;5.07;;;;;;;;;;5061372;28;20037;-68
2022/11/19 08:12:36;;;;;;;7.22;5.15;;;;;;;;;;5045113;28;20092;-68
2022/11/19 08:15:03;;;;;;;6.18;5.10;;;;;;;;;;5034513;28;20048;-68
2022/11/19 08:20:15;;;;;;;7.05;5.03;;;;;;;;;;5048847;28;20048;-68
2022/11/19 08:22:42;;;;;;;5.97;4.75;;;;;;;;;;5054087;28;20104;-68
2022/11/19 08:25:08;;;;;;;6.82;5.07;;;;;;;;;;5035869;28;20052;-68
2022/11/19 08:27:35;;;;;;;7.13;4.93;;;;;;;;;;5054151;28;20139;-67
2022/11/19 08:30:01;;;;;;;6.05;4.78;;;;;;;;;;5069632;28;20052;-67
2022/11/19 08:32:27;;;;;;;6.15;4.68;;;;;;;;;;5053298;28;20082;-67
2022/11/19 08:34:53;;;;;;;7.22;4.85;;;;;;;;;;5022133;28;20635;-67
2022/11/19 08:37:19;;;;;;;7.88;5.03;;;;;;;;;;5037346;28;20049;-68
2022/11/19 08:39:45;;;;;;;6.65;4.72;;;;;;;;;;5052280;28;20036;-67
2022/11/19 08:44:57;;;;;;;5.40;4.40;;;;;;;;;;5056897;28;20061;-67
2022/11/19 08:47:23;;;;;;;7.38;5.20;;;;;;;;;;5049323;28;20063;-68
2022/11/19 08:49:49;;;;;;;7.35;4.55;;;;;;;;;;5054754;28;20068;-68
2022/11/19 08:52:15;;;;;;;7.03;5.50;;;;;;;;;;5057086;28;20032;-67
2022/11/19 08:54:41;;;;;;;5.18;4.40;;;;;;;;;;5052071;28;20093;-67
2022/11/19 08:57:07;;;;;;;7.93;4.90;;;;;;;;;;5058570;28;20041;-68
2022/11/19 08:59:34;;;;;;;6.78;5.18;;;;;;;;;;5039211;28;20056;-67
2022/11/19 09:02:00;;;;;;;8.25;5.20;;;;;;;;;;5034970;28;20047;-68
2022/11/19 09:04:26;;;;;;;7.45;5.40;;;;;;;;;;5028487;28;20049;-67
2022/11/19 09:06:52;;;;;;;6.40;4.72;;;;;;;;;;5047737;28;20113;-67
2022/11/19 09:09:18;;;;;;;6.30;4.78;;;;;;;;;;5052025;28;20480;-67
2022/11/19 09:11:44;;;;;;;6.72;5.18;;;;;;;;;;5055941;28;20051;-67
2022/11/19 09:14:11;;;;;;;6.68;5.15;;;;;;;;;;5055643;28;20044;-68
2022/11/19 09:16:37;;;;;;;6.75;5.22;;;;;;;;;;5055086;28;20074;-68
2022/11/19 09:19:03;;;;;;;7.47;5.63;;;;;;;;;;5053018;28;20045;-68
2022/11/19 09:21:29;;;;;;;8.15;5.53;;;;;;;;;;5045983;28;20110;-67
2022/11/19 09:23:55;;;;;;;8.43;5.43;;;;;;;;;;5048576;28;22320;-67
2022/11/19 09:26:21;;;;;;;6.65;5.30;;;;;;;;;;5048588;28;20067;-67
2022/11/19 09:28:48;;;;;;;7.97;5.45;;;;;;;;;;5052785;28;20144;-67
2022/11/19 09:31:18;;;;;;;8.88;5.95;;;;;;;;;;5062892;28;20112;-66
2022/11/19 09:33:48;;;;;;;8.35;5.10;;;;;;;;;;5047060;28;20060;-67
2022/11/19 09:36:15;;;;;;;10.95;6.05;;;;;;;;;;5046222;28;20048;-67
2022/11/19 09:38:41;;;;;;;7.10;4.95;;;;;;;;;;5051899;28;20072;-67
2022/11/19 09:41:16;;;;;;;9.45;6.43;;;;;;;;;;5046427;28;20091;-67
2022/11/19 09:43:42;;;;;;;14.50;5.75;;;;;;;;;;5045374;28;20048;-67
2022/11/19 09:46:08;;;;;;;13.50;8.93;;;;;;;;;;5050295;28;22054;-67
2022/11/19 09:48:38;;;;;;;8.63;6.63;;;;;;;;;;5050755;28;20063;-67
2022/11/19 09:51:10;;;;;;;17.70;9.93;;;;;;;;;;5045070;28;20104;-67
2022/11/19 09:53:48;;;;;;;14.23;9.30;;;;;;;;;;5048940;28;20048;-67
2022/11/19 09:56:17;;;;;;;6.45;4.93;;;;;;;;;;5045650;28;20055;-67
2022/11/19 09:58:44;;;;;;;6.00;4.95;;;;;;;;;;5051612;28;20044;-67
2022/11/19 10:01:17;;;;;;;6.85;5.32;;;;;;;;;;5050056;28;20117;-67
2022/11/19 10:03:48;;;;;;;6.80;5.30;;;;;;;;;;5051094;28;20068;-66
2022/11/19 10:06:14;;;;;;;7.05;4.97;;;;;;;;;;5035514;28;20139;-66
2022/11/19 10:08:40;;;;;;;8.20;5.40;;;;;;;;;;5045624;28;20048;-66
2022/11/19 10:11:06;;;;;;;7.18;5.28;;;;;;;;;;5053885;28;20608;-67
2022/11/19 10:13:35;;;;;;;4.82;4.30;;;;;;;;;;5049246;28;20044;-66
2022/11/19 10:16:10;;;;;;;5.47;4.65;;;;;;;;;;5056725;28;20040;-67
2022/11/19 10:18:55;;;;;;;10.30;6.90;;;;;;;;;;5059070;28;20056;-67
2022/11/19 10:21:29;;;;;;;7.35;5.22;;;;;;;;;;5058042;28;20040;-66
2022/11/19 10:23:58;;;;;;;8.35;5.78;;;;;;;;;;5058465;28;20048;-66
2022/11/19 10:26:34;;;;;;;6.57;4.45;;;;;;;;;;5055622;28;20071;-66
2022/11/19 10:29:01;;;;;;;6.28;4.72;;;;;;;;;;5060365;28;20048;-67
2022/11/19 10:31:38;;;;;;;6.28;4.15;;;;;;;;;;5058444;28;20062;-67
2022/11/19 10:34:04;;;;;;;6.43;5.05;;;;;;;;;;5057157;28;20052;-66
2022/11/19 10:36:33;;;;;;;5.15;4.43;;;;;;;;;;5061324;28;20037;-66
2022/11/19 10:39:01;;;;;;;6.55;5.30;;;;;;;;;;5058652;28;20140;-66
2022/11/19 10:41:34;;;;;;;6.90;5.07;;;;;;;;;;5057852;28;20072;-66
2022/11/19 10:44:02;;;;;;;9.07;4.97;;;;;;;;;;5059159;28;20537;-66
2022/11/19 10:46:28;;;;;;;6.72;4.40;;;;;;;;;;5059092;28;20056;-67
2022/11/19 10:48:55;;;;;;;5.95;4.43;;;;;;;;;;5059315;28;20056;-66
2022/11/19 10:51:23;;;;;;;6.97;4.95;;;;;;;;;;5056377;28;20116;-66
2022/11/19 10:53:50;;;;;;;6.88;4.97;;;;;;;;;;5058612;28;20068;-67
2022/11/19 10:56:24;;;;;;;6.00;4.93;;;;;;;;;;5056750;28;20048;-66
2022/11/19 10:59:00;;;;;;;8.68;5.18;;;;;;;;;;5052628;28;20071;-67
2022/11/19 11:01:31;;;;;;;5.72;4.80;;;;;;;;;;5059130;28;20044;-66
2022/11/19 11:04:00;;;;;;;6.05;4.55;;;;;;;;;;5065726;28;20048;-66
2022/11/19 11:06:26;;;;;;;6.05;5.20;;;;;;;;;;5058958;28;20522;-66
2022/11/19 11:08:53;;;;;;;6.60;4.70;;;;;;;;;;5057916;28;20043;-66
2022/11/19 11:14:50;;;;;;;5.85;4.60;;;;;;;;;;5056228;28;20788;-66
2022/11/19 11:16:57;;;;;;;5.22;4.43;;;;;;;;;;5055799;28;20063;-66
2022/11/19 11:19:23;;;;;;;6.65;4.88;;;;;;;;;;5055411;28;20060;-66
2022/11/19 11:21:53;;;;;;;7.35;4.95;;;;;;;;;;5054022;28;20115;-66
2022/11/19 11:24:20;;;;;;;7.13;5.05;;;;;;;;;;5055283;28;20041;-66
2022/11/19 11:26:46;;;;;;;5.18;4.55;;;;;;;;;;5036088;28;20056;-66
2022/11/19 11:29:12;;;;;;;6.55;4.70;;;;;;;;;;5052918;28;20053;-67
2022/11/19 11:31:40;;;;;;;7.82;5.13;;;;;;;;;;5055561;28;20416;-67
2022/11/19 11:34:07;;;;;;;6.65;4.68;;;;;;;;;;5037552;28;20045;-67
2022/11/19 11:36:35;;;;;;;5.00;4.20;;;;;;;;;;5055437;28;20067;-67
2022/11/19 11:39:02;;;;;;;6.97;4.75;;;;;;;;;;5054902;28;22387;-68
2022/11/19 11:41:33;;;;;;;5.35;4.63;;;;;;;;;;5056311;28;20049;-66
2022/11/19 11:44:04;;;;;;;7.85;4.70;;;;;;;;;;5054865;28;20119;-67
2022/11/19 11:46:34;;;;;;;5.95;4.47;;;;;;;;;;5051304;28;20115;-67
2022/11/19 11:49:00;;;;;;;4.72;4.22;;;;;;;;;;5055396;28;20139;-67
2022/11/19 11:51:28;;;;;;;5.90;4.63;;;;;;;;;;5055150;28;20048;-67
2022/11/19 11:54:15;;;;;;;6.45;4.35;;;;;;;;;;5056041;28;20072;-69
2022/11/19 11:56:41;;;;;;;6.13;4.40;;;;;;;;;;5055557;28;20041;-67
2022/11/19 11:59:25;;;;;;;6.10;4.55;;;;;;;;;;5056180;28;20048;-68
2022/11/19 12:02:00;;;;;;;4.65;4.15;;;;;;;;;;5049471;28;21243;-66
2022/11/19 12:04:26;;;;;;;5.05;4.47;;;;;;;;;;5054639;28;20040;-67
2022/11/19 12:07:10;;;;;;;4.80;4.30;;;;;;;;;;5048722;28;20057;-67
2022/11/19 12:09:39;;;;;;;4.53;3.92;;;;;;;;;;5054652;28;20044;-67
2022/11/19 12:12:13;;;;;;;5.55;4.22;;;;;;;;;;5047926;28;20044;-66
2022/11/19 12:14:57;;;;;;;5.90;4.40;;;;;;;;;;5052199;28;20044;-67
2022/11/19 12:17:23;;;;;;;5.03;4.20;;;;;;;;;;5047589;28;20167;-67
2022/11/19 12:20:08;;;;;;;5.20;4.35;;;;;;;;;;5053118;28;21400;-67
2022/11/19 12:22:40;;;;;;;4.82;4.32;;;;;;;;;;5070542;28;20040;-67
2022/11/19 12:25:27;;;;;;;5.57;4.60;;;;;;;;;;5053428;28;20059;-67
2022/11/19 12:28:02;;;;;;;5.22;4.38;;;;;;;;;;5032776;28;20078;-67
2022/11/19 12:30:54;;;;;;;5.43;4.70;;;;;;;;;;5033940;28;20075;-67
2022/11/19 12:33:40;;;;;;;5.28;4.32;;;;;;;;;;5031731;28;20057;-67
2022/11/19 12:36:18;;;;;;;5.32;4.35;;;;;;;;;;5045220;28;20048;-67
2022/11/19 12:39:13;;;;;;;5.47;4.55;;;;;;;;;;5050639;28;20084;-67
2022/11/19 12:41:54;;;;;;;7.18;4.22;;;;;;;;;;5029641;28;20870;-67
2022/11/19 12:44:20;;;;;;;5.57;4.43;;;;;;;;;;5056111;28;20055;-67
2022/11/19 12:46:51;;;;;;;5.10;4.53;;;;;;;;;;5055053;28;20060;-68
2022/11/19 12:49:17;;;;;;;7.88;4.85;;;;;;;;;;5055625;28;20051;-67
2022/11/19 12:52:02;;;;;;;5.68;4.80;;;;;;;;;;5057583;28;20067;-66
2022/11/19 12:54:28;;;;;;;8.07;5.43;;;;;;;;;;5065154;28;20064;-66
2022/11/19 12:57:08;;;;;;;5.70;4.93;;;;;;;;;;5071283;28;20063;-67
2022/11/19 12:59:34;;;;;;;7.10;4.93;;;;;;;;;;5055934;28;20998;-66
2022/11/19 13:02:03;;;;;;;6.10;4.93;;;;;;;;;;5039771;28;20043;-67
2022/11/19 13:04:29;;;;;;;5.88;4.50;;;;;;;;;;5036218;28;20036;-66
2022/11/19 13:07:04;;;;;;;5.82;4.55;;;;;;;;;;5054489;28;20045;-66
2022/11/19 13:09:45;;;;;;;5.78;4.47;;;;;;;;;;5055967;28;20044;-66
2022/11/19 13:12:13;;;;;;;5.70;4.85;;;;;;;;;;5053398;28;20082;-66
2022/11/19 13:14:41;;;;;;;5.80;4.95;;;;;;;;;;5056882;28;20063;-66
2022/11/19 13:17:17;;;;;;;5.55;4.38;;;;;;;;;;5053180;28;20139;-66
2022/11/19 13:19:46;;;;;;;5.93;4.82;;;;;;;;;;5055674;28;20252;-69
2022/11/19 13:22:24;;;;;;;9.70;4.88;;;;;;;;;;5053513;28;20112;-69
2022/11/19 13:24:54;;;;;;;7.35;4.90;;;;;;;;;;5055164;28;20044;-68
2022/11/19 13:27:22;;;;;;;5.70;4.50;;;;;;;;;;5055267;28;20126;-68
2022/11/19 13:29:52;;;;;;;6.30;5.00;;;;;;;;;;5056030;28;20036;-68
2022/11/19 13:32:22;;;;;;;8.43;4.45;;;;;;;;;;5056199;28;20049;-68
2022/11/19 13:34:55;;;;;;;6.22;4.80;;;;;;;;;;5055112;28;20147;-68
2022/11/19 13:37:21;;;;;;;7.57;5.22;;;;;;;;;;5047542;28;20044;-68
2022/11/19 13:39:52;;;;;;;6.05;4.88;;;;;;;;;;5055452;28;20066;-68
2022/11/19 13:45:04;;;;;;;8.00;5.10;;;;;;;;;;5056119;28;20049;-69
2022/11/19 13:47:33;;;;;;;6.10;4.50;;;;;;;;;;5070538;28;20058;-66
2022/11/19 13:50:06;;;;;;;7.05;4.70;;;;;;;;;;5051591;28;20044;-66
2022/11/19 13:52:37;;;;;;;5.90;5.03;;;;;;;;;;5040888;28;20053;-66
2022/11/19 13:55:04;;;;;;;6.30;4.93;;;;;;;;;;5052873;28;20049;-67
2022/11/19 13:57:32;;;;;;;7.15;4.85;;;;;;;;;;5061183;28;20033;-67
2022/11/19 14:00:18;;;;;;;6.88;5.57;;;;;;;;;;5056867;28;20051;-67
2022/11/19 14:02:56;;;;;;;7.72;5.25;;;;;;;;;;5060461;28;20067;-67
2022/11/19 14:05:25;;;;;;;7.03;4.70;;;;;;;;;;5059135;28;20048;-67
2022/11/19 14:08:06;;;;;;;7.40;5.88;;;;;;;;;;5058295;28;20662;-67
2022/11/19 14:10:55;;;;;;;7.15;5.47;;;;;;;;;;5059173;28;21009;-67
2022/11/19 14:13:40;;;;;;;8.70;5.70;;;;;;;;;;5056832;28;20049;-67
2022/11/19 14:27:52;;;;;;;8.50;5.40;;;;;;;;;;5060096;28;20044;-67
2022/11/19 14:30:19;;;;;;;6.57;5.50;;;;;;;;;;5057460;28;20055;-67
2022/11/19 14:32:47;;;;;;;7.80;5.72;;;;;;;;;;5057730;28;20142;-68
2022/11/19 14:35:21;;;;;;;14.57;8.48;;;;;;;;;;5065741;28;20102;-67
2022/11/19 14:37:48;;;;;;;13.15;7.43;;;;;;;;;;5058316;28;20052;-67
2022/11/19 14:40:26;;;;;;;10.98;7.28;;;;;;;;;;5056851;28;20082;-67
2022/11/19 14:46:04;;;;;;;11.70;8.73;;;;;;;;;;5057922;28;20064;-66
2022/11/19 14:48:35;;;;;;;12.63;7.70;;;;;;;;;;5042088;28;20488;-66
2022/11/19 14:51:04;;;;;;;12.63;7.93;;;;;;;;;;5033336;28;20071;-66
2022/11/19 14:53:30;;;;;;;13.52;7.97;;;;;;;;;;5058508;28;20048;-66
2022/11/19 14:55:57;;;;;;;13.65;8.27;;;;;;;;;;5049454;28;20078;-66
2022/11/19 14:58:24;;;;;;;23.35;14.10;;;;;;;;;;5056556;28;20051;-66
2022/11/19 15:01:04;;;;;;;20.75;14.35;;;;;;;;;;5056864;28;20408;-65
2022/11/19 15:03:30;;;;;;;12.30;9.57;;;;;;;;;;5054702;28;20055;-66
2022/11/19 15:06:05;;;;;;;9.15;7.68;;;;;;;;;;5057813;28;20044;-66
2022/11/19 15:08:45;;;;;;;9.18;7.03;;;;;;;;;;5048536;28;20772;-66
2022/11/19 15:11:13;;;;;;;7.32;6.03;;;;;;;;;;5056481;28;20052;-65
2022/11/19 15:13:40;;;;;;;9.32;6.03;;;;;;;;;;5042155;28;20048;-65
2022/11/19 15:16:09;;;;;;;9.75;6.15;;;;;;;;;;5057554;28;20032;-65
2022/11/19 15:18:44;;;;;;;9.07;6.40;;;;;;;;;;5050427;28;20056;-66
2022/11/19 15:21:26;;;;;;;6.88;5.47;;;;;;;;;;5053770;28;20819;-66
2022/11/19 15:24:01;;;;;;;8.15;6.20;;;;;;;;;;5031832;28;20048;-66
2022/11/19 15:26:44;;;;;;;8.70;6.57;;;;;;;;;;5069046;28;20391;-67
2022/11/19 15:29:25;;;;;;;9.60;6.13;;;;;;;;;;5052156;28;20040;-66
2022/11/19 15:32:10;;;;;;;7.32;6.03;;;;;;;;;;5052753;28;20112;-66